This is the latest recevied weather packets stored in our database for station/object F5MAP-5. If no packets are shown the sender has not sent any weather packets the latest 1 day(s).
| Time | Temp. | Humidity | Pressure | Rain* | Wind** | Luminosity | Snow |
|---|---|---|---|---|---|---|---|
| 1777971136 | 14.44° C | 94% | 1009.2 hPa | 0 mm | 0.45 m/s, 222° | 155 W/m² | - |
| 1777970536 | 14.44° C | 94% | 1009.2 hPa | 0 mm | 1.34 m/s, 156° | 202 W/m² | - |
| 1777969935 | 14.44° C | 94% | 1009.3 hPa | 0 mm | 1.34 m/s, 269° | 200 W/m² | - |
| 1777969335 | 14.44° C | 94% | 1009.4 hPa | 0 mm | 2.24 m/s, 197° | 186 W/m² | - |
| 1777968735 | 14.44° C | 94% | 1009.4 hPa | 0 mm | 0.89 m/s, 233° | 188 W/m² | - |
| 1777968136 | 14.44° C | 94% | 1009.5 hPa | 0 mm | 1.34 m/s, 235° | 188 W/m² | - |
| 1777967535 | 13.89° C | 94% | 1009.5 hPa | 0 mm | 0.89 m/s, 258° | 197 W/m² | - |
| 1777966935 | 13.89° C | 94% | 1009.5 hPa | 0 mm | 1.34 m/s, 180° | 178 W/m² | - |
| 1777966335 | 13.89° C | 94% | 1009.7 hPa | 0 mm | 1.34 m/s, 219° | 181 W/m² | - |
| 1777965736 | 13.33° C | 94% | 1009.7 hPa | 0 mm | 0.89 m/s, 217° | 232 W/m² | - |
| 1777965135 | 13.33° C | 94% | 1009.8 hPa | 0 mm | 1.34 m/s, 209° | 169 W/m² | - |
| 1777964535 | 12.78° C | 94% | 1009.8 hPa | 0 mm | 0.89 m/s, 228° | 148 W/m² | - |
| 1777963935 | 12.78° C | 94% | 1009.9 hPa | 0 mm | 0.89 m/s, 247° | 98 W/m² | - |
| 1777963335 | 12.78° C | 93% | 1009.9 hPa | 0 mm | 1.34 m/s, 224° | 47 W/m² | - |
| 1777962735 | 12.78° C | 93% | 1009.9 hPa | 0 mm | 1.34 m/s, 200° | 46 W/m² | - |
| 1777962135 | 12.78° C | 94% | 1009.9 hPa | 0 mm | 1.34 m/s, 182° | 47 W/m² | - |
| 1777961535 | 12.22° C | 93% | 1010.1 hPa | 0 mm | 0.89 m/s, 230° | 56 W/m² | - |
| 1777960935 | 12.22° C | 93% | 1010 hPa | 0 mm | 0.89 m/s, 214° | 40 W/m² | - |
| 1777960335 | 12.22° C | 93% | 1010.1 hPa | 0 mm | 0.89 m/s, 202° | 39 W/m² | - |
| 1777959735 | 11.67° C | 93% | 1010.1 hPa | 0 mm | 0.45 m/s, 195° | 21 W/m² | - |
| 1777959135 | 11.67° C | 93% | 1010.2 hPa | 0 mm | 0.45 m/s, 185° | 14 W/m² | - |
| 1777958535 | 11.67° C | 93% | 1010.1 hPa | 0 mm | 0.89 m/s, 193° | 12 W/m² | - |
| 1777957935 | 11.67° C | 93% | 1010 hPa | 0 mm | 0 m/s | 16 W/m² | - |
| 1777957335 | 11.67° C | 93% | 1010.1 hPa | 0 mm | 0 m/s | 14 W/m² | - |
| 1777956737 | 11.67° C | 93% | 1010.1 hPa | 0 mm | 0 m/s | 16 W/m² | - |
* Rain latest hour (hover to see other rain measurements)
** Current wind speed in m/s (hover to see current wind gust speed)